sensor_id;sensor_type;location;lat;lon;timestamp;pressure;altitude;pressure_sealevel;temperature;humidity
81990;BME280;71485;51.638;-0.182;2023-07-13T14:20:10;100564.56;;;15.09;30.35
81990;BME280;71485;51.638;-0.182;2023-07-13T14:23:49;100573.77;;;25.14;31.19
81990;BME280;71485;51.638;-0.182;2023-07-13T14:26:53;100575.45;;;16.46;29.61
81990;BME280;71485;51.638;-0.182;2023-07-13T14:29:59;100576.92;;;26.77;28.94
81990;BME280;71485;51.638;-0.182;2023-07-13T14:32:24;100569.52;;;24.69;33.04
81990;BME280;71485;51.638;-0.182;2023-07-13T14:34:50;100570.50;;;23.85;34.69
81990;BME280;71485;51.638;-0.182;2023-07-13T14:37:15;100571.08;;;25.03;33.84
81990;BME280;71485;51.638;-0.182;2023-07-13T14:39:42;100564.86;;;25.78;34.13
81990;BME280;71485;51.638;-0.182;2023-07-13T14:42:09;100561.81;;;26.25;33.88
81990;BME280;71485;51.638;-0.182;2023-07-13T14:44:38;100578.44;;;24.70;36.23
81990;BME280;71485;51.638;-0.182;2023-07-13T14:46:59;100578.15;;;26.27;34.69
81990;BME280;71485;51.638;-0.182;2023-07-13T14:49:27;100578.70;;;26.21;34.62
81990;BME280;71485;51.638;-0.182;2023-07-13T14:51:48;100574.95;;;24.95;36.06
81990;BME280;71485;51.638;-0.182;2023-07-13T14:54:15;100570.03;;;25.55;35.42
81990;BME280;71485;51.638;-0.182;2023-07-13T14:56:39;100565.78;;;25.48;35.59
81990;BME280;71485;51.638;-0.182;2023-07-13T14:59:05;100563.57;;;25.55;35.48
81990;BME280;71485;51.638;-0.182;2023-07-13T15:01:30;100560.24;;;25.23;35.88
81990;BME280;71485;51.638;-0.182;2023-07-13T15:03:56;100555.01;;;25.38;35.70
81990;BME280;71485;51.638;-0.182;2023-07-13T15:06:22;100554.12;;;25.35;35.87
81990;BME280;71485;51.638;-0.182;2023-07-13T15:08:47;100553.57;;;24.96;36.36
81990;BME280;71485;51.638;-0.182;2023-07-13T15:11:13;100552.37;;;25.22;36.04
81990;BME280;71485;51.638;-0.182;2023-07-13T15:13:39;100552.79;;;24.80;36.64
81990;BME280;71485;51.638;-0.182;2023-07-13T15:16:04;100547.98;;;25.28;36.15
81990;BME280;71485;51.638;-0.182;2023-07-13T15:18:29;100546.43;;;24.61;37.44
81990;BME280;71485;51.638;-0.182;2023-07-13T15:20:55;100542.51;;;24.74;37.36
81990;BME280;71485;51.638;-0.182;2023-07-13T15:23:22;100549.84;;;25.00;36.91
81990;BME280;71485;51.638;-0.182;2023-07-13T15:25:47;100547.65;;;25.41;36.65
81990;BME280;71485;51.638;-0.182;2023-07-13T15:28:11;100541.17;;;25.07;36.08
81990;BME280;71485;51.638;-0.182;2023-07-13T15:30:41;100543.03;;;25.19;36.07
81990;BME280;71485;51.638;-0.182;2023-07-13T15:33:12;100537.92;;;24.93;36.07
81990;BME280;71485;51.638;-0.182;2023-07-13T15:35:27;100543.13;;;24.49;36.20
81990;BME280;71485;51.638;-0.182;2023-07-13T15:37:54;100543.44;;;24.68;35.84
81990;BME280;71485;51.638;-0.182;2023-07-13T15:40:19;100546.75;;;24.93;35.73
81990;BME280;71485;51.638;-0.182;2023-07-13T15:42:45;100544.10;;;24.58;35.60
81990;BME280;71485;51.638;-0.182;2023-07-13T15:45:16;100541.18;;;24.56;35.84
81990;BME280;71485;51.638;-0.182;2023-07-13T15:47:40;100538.33;;;24.66;35.79
81990;BME280;71485;51.638;-0.182;2023-07-13T15:50:01;100541.32;;;25.05;35.59
81990;BME280;71485;51.638;-0.182;2023-07-13T15:52:28;100540.81;;;24.72;35.63
81990;BME280;71485;51.638;-0.182;2023-07-13T15:54:52;100537.52;;;25.16;35.01
81990;BME280;71485;51.638;-0.182;2023-07-13T15:57:18;100541.71;;;25.11;35.52
81990;BME280;71485;51.638;-0.182;2023-07-13T15:59:43;100541.02;;;25.23;35.43
81990;BME280;71485;51.638;-0.182;2023-07-13T16:02:17;100542.57;;;24.89;36.01
81990;BME280;71485;51.638;-0.182;2023-07-13T16:04:34;100542.22;;;24.85;36.05
81990;BME280;71485;51.638;-0.182;2023-07-13T16:07:00;100545.54;;;24.79;36.00
81990;BME280;71485;51.638;-0.182;2023-07-13T16:09:25;100537.99;;;25.19;35.68
81990;BME280;71485;51.638;-0.182;2023-07-13T16:11:50;100527.95;;;24.69;36.18
81990;BME280;71485;51.638;-0.182;2023-07-13T16:14:16;100536.82;;;25.09;35.87
81990;BME280;71485;51.638;-0.182;2023-07-13T16:16:41;100534.90;;;24.99;36.01
81990;BME280;71485;51.638;-0.182;2023-07-13T16:19:07;100530.11;;;25.19;35.52
81990;BME280;71485;51.638;-0.182;2023-07-13T16:21:35;100531.07;;;24.80;35.81
81990;BME280;71485;51.638;-0.182;2023-07-13T16:24:02;100527.73;;;24.57;36.33
81990;BME280;71485;51.638;-0.182;2023-07-13T16:26:28;100531.87;;;24.35;36.09
81990;BME280;71485;51.638;-0.182;2023-07-13T16:28:49;100532.07;;;24.82;35.85
81990;BME280;71485;51.638;-0.182;2023-07-13T16:31:14;100528.93;;;24.57;35.94
81990;BME280;71485;51.638;-0.182;2023-07-13T16:33:40;100527.66;;;25.26;35.33
81990;BME280;71485;51.638;-0.182;2023-07-13T16:36:09;100529.79;;;24.80;35.60
81990;BME280;71485;51.638;-0.182;2023-07-13T16:38:32;100528.02;;;24.87;35.70
81990;BME280;71485;51.638;-0.182;2023-07-13T16:40:57;100531.36;;;24.61;35.75
81990;BME280;71485;51.638;-0.182;2023-07-13T16:43:23;100525.60;;;24.42;35.99
81990;BME280;71485;51.638;-0.182;2023-07-13T16:45:49;100526.41;;;24.56;35.85
81990;BME280;71485;51.638;-0.182;2023-07-13T16:48:16;100522.03;;;25.26;34.97
81990;BME280;71485;51.638;-0.182;2023-07-13T16:50:41;100527.82;;;24.90;35.32
81990;BME280;71485;51.638;-0.182;2023-07-13T16:53:07;100525.66;;;24.89;34.58
81990;BME280;71485;51.638;-0.182;2023-07-13T16:55:30;100529.54;;;24.67;34.68
81990;BME280;71485;51.638;-0.182;2023-07-13T16:57:57;100527.94;;;24.72;34.88
81990;BME280;71485;51.638;-0.182;2023-07-13T17:00:24;100526.57;;;24.76;34.49
81990;BME280;71485;51.638;-0.182;2023-07-13T17:02:47;100524.56;;;24.60;34.87
81990;BME280;71485;51.638;-0.182;2023-07-13T17:05:12;100524.36;;;24.97;34.77
81990;BME280;71485;51.638;-0.182;2023-07-13T17:07:38;100525.87;;;24.90;34.74
81990;BME280;71485;51.638;-0.182;2023-07-13T17:10:05;100524.15;;;24.36;35.20
81990;BME280;71485;51.638;-0.182;2023-07-13T17:12:29;100525.51;;;24.43;35.76
81990;BME280;71485;51.638;-0.182;2023-07-13T17:14:54;100527.76;;;24.35;35.11
81990;BME280;71485;51.638;-0.182;2023-07-13T17:17:26;100530.94;;;24.56;34.53
81990;BME280;71485;51.638;-0.182;2023-07-13T17:19:49;100535.44;;;24.77;34.18
81990;BME280;71485;51.638;-0.182;2023-07-13T17:22:12;100528.56;;;24.26;34.43
81990;BME280;71485;51.638;-0.182;2023-07-13T17:24:41;100529.41;;;24.40;34.87
81990;BME280;71485;51.638;-0.182;2023-07-13T17:27:04;100530.39;;;25.07;34.03
81990;BME280;71485;51.638;-0.182;2023-07-13T17:29:28;100533.87;;;24.85;33.94
81990;BME280;71485;51.638;-0.182;2023-07-13T17:31:53;100533.49;;;24.60;34.13
81990;BME280;71485;51.638;-0.182;2023-07-13T17:34:19;100532.37;;;24.75;34.05
81990;BME280;71485;51.638;-0.182;2023-07-13T17:36:44;100530.56;;;24.67;33.97
81990;BME280;71485;51.638;-0.182;2023-07-13T17:39:15;100530.57;;;24.87;34.11
81990;BME280;71485;51.638;-0.182;2023-07-13T17:41:36;100526.75;;;24.69;34.47
81990;BME280;71485;51.638;-0.182;2023-07-13T17:44:01;100524.76;;;24.73;34.52
81990;BME280;71485;51.638;-0.182;2023-07-13T17:46:29;100525.90;;;24.66;34.69
81990;BME280;71485;51.638;-0.182;2023-07-13T17:48:54;100528.70;;;25.06;34.24
81990;BME280;71485;51.638;-0.182;2023-07-13T17:51:18;100526.73;;;25.46;33.72
81990;BME280;71485;51.638;-0.182;2023-07-13T17:53:44;100527.14;;;24.91;34.30
81990;BME280;71485;51.638;-0.182;2023-07-13T17:56:09;100526.14;;;25.01;34.00
81990;BME280;71485;51.638;-0.182;2023-07-13T17:58:36;100523.93;;;24.59;34.47
81990;BME280;71485;51.638;-0.182;2023-07-13T18:01:00;100520.83;;;24.82;34.20
81990;BME280;71485;51.638;-0.182;2023-07-13T18:03:27;100527.06;;;24.85;34.15
81990;BME280;71485;51.638;-0.182;2023-07-13T18:05:55;100526.77;;;24.85;33.42
81990;BME280;71485;51.638;-0.182;2023-07-13T18:08:21;100534.01;;;24.90;34.08
81990;BME280;71485;51.638;-0.182;2023-07-13T18:10:42;100537.55;;;24.73;34.28
81990;BME280;71485;51.638;-0.182;2023-07-13T18:13:08;100531.52;;;24.41;34.22
81990;BME280;71485;51.638;-0.182;2023-07-13T18:15:35;100527.08;;;24.51;34.18
81990;BME280;71485;51.638;-0.182;2023-07-13T18:18:01;100529.05;;;24.72;34.33
81990;BME280;71485;51.638;-0.182;2023-07-13T18:20:25;100536.72;;;24.72;34.38
81990;BME280;71485;51.638;-0.182;2023-07-13T18:22:51;100539.45;;;24.22;35.09
81990;BME280;71485;51.638;-0.182;2023-07-13T18:25:23;100538.56;;;24.53;34.79
81990;BME280;71485;51.638;-0.182;2023-07-13T18:27:42;100533.55;;;24.47;34.96
81990;BME280;71485;51.638;-0.182;2023-07-13T18:30:09;100531.66;;;24.31;35.20
81990;BME280;71485;51.638;-0.182;2023-07-13T18:32:33;100531.78;;;24.10;35.21
81990;BME280;71485;51.638;-0.182;2023-07-13T18:34:58;100536.43;;;24.68;34.70
81990;BME280;71485;51.638;-0.182;2023-07-13T18:37:25;100543.48;;;24.09;35.44
81990;BME280;71485;51.638;-0.182;2023-07-13T18:39:51;100540.26;;;24.89;34.29
81990;BME280;71485;51.638;-0.182;2023-07-13T18:42:15;100539.69;;;24.38;33.95
81990;BME280;71485;51.638;-0.182;2023-07-13T18:44:40;100548.30;;;24.76;34.05
81990;BME280;71485;51.638;-0.182;2023-07-13T18:47:08;100548.14;;;24.52;33.95
81990;BME280;71485;51.638;-0.182;2023-07-13T18:49:32;100557.69;;;24.44;33.66
81990;BME280;71485;51.638;-0.182;2023-07-13T18:51:57;100550.72;;;24.37;33.52
81990;BME280;71485;51.638;-0.182;2023-07-13T18:54:23;100548.94;;;23.99;33.65
81990;BME280;71485;51.638;-0.182;2023-07-13T18:56:48;100549.06;;;24.51;33.04
81990;BME280;71485;51.638;-0.182;2023-07-13T18:59:15;100551.12;;;23.81;33.55
81990;BME280;71485;51.638;-0.182;2023-07-13T19:01:39;100554.40;;;23.91;33.33
81990;BME280;71485;51.638;-0.182;2023-07-13T19:06:30;100558.34;;;24.31;32.76
81990;BME280;71485;51.638;-0.182;2023-07-13T19:08:57;100553.43;;;24.65;32.15
81990;BME280;71485;51.638;-0.182;2023-07-13T19:11:22;100554.06;;;24.60;32.24
81990;BME280;71485;51.638;-0.182;2023-07-13T19:13:47;100561.65;;;24.53;32.10
81990;BME280;71485;51.638;-0.182;2023-07-13T19:16:13;100560.40;;;24.61;32.29
81990;BME280;71485;51.638;-0.182;2023-07-13T19:18:39;100565.10;;;24.58;32.44
81990;BME280;71485;51.638;-0.182;2023-07-13T19:21:06;100563.92;;;24.74;32.30
81990;BME280;71485;51.638;-0.182;2023-07-13T19:23:33;100565.08;;;24.34;32.82
81990;BME280;71485;51.638;-0.182;2023-07-13T19:26:01;100565.62;;;24.63;32.58
81990;BME280;71485;51.638;-0.182;2023-07-13T19:28:26;100566.45;;;24.62;32.65
81990;BME280;71485;51.638;-0.182;2023-07-13T19:30:46;100564.47;;;24.59;32.98
81990;BME280;71485;51.638;-0.182;2023-07-13T19:33:15;100562.84;;;24.32;33.00
81990;BME280;71485;51.638;-0.182;2023-07-13T19:35:38;100558.44;;;24.59;32.71
81990;BME280;71485;51.638;-0.182;2023-07-13T19:38:03;100560.91;;;24.59;32.70
81990;BME280;71485;51.638;-0.182;2023-07-13T19:40:28;100556.76;;;24.72;32.57
81990;BME280;71485;51.638;-0.182;2023-07-13T19:42:54;100557.02;;;24.37;32.76
81990;BME280;71485;51.638;-0.182;2023-07-13T19:45:21;100559.98;;;24.38;33.03
81990;BME280;71485;51.638;-0.182;2023-07-13T19:47:47;100561.73;;;24.70;32.70
81990;BME280;71485;51.638;-0.182;2023-07-13T19:50:12;100566.01;;;24.51;32.91
81990;BME280;71485;51.638;-0.182;2023-07-13T19:52:42;100568.31;;;24.43;32.99
81990;BME280;71485;51.638;-0.182;2023-07-13T19:55:09;100572.46;;;24.75;32.63
81990;BME280;71485;51.638;-0.182;2023-07-13T19:57:30;100569.91;;;24.69;32.68
81990;BME280;71485;51.638;-0.182;2023-07-13T19:59:53;100565.61;;;24.62;32.77
81990;BME280;71485;51.638;-0.182;2023-07-13T20:02:20;100567.43;;;24.54;32.89
81990;BME280;71485;51.638;-0.182;2023-07-13T20:04:44;100568.24;;;24.25;33.27
81990;BME280;71485;51.638;-0.182;2023-07-13T20:07:14;100569.72;;;24.43;33.03
81990;BME280;71485;51.638;-0.182;2023-07-13T20:09:35;100569.23;;;24.53;32.58
81990;BME280;71485;51.638;-0.182;2023-07-13T20:12:01;100571.01;;;24.55;32.82
81990;BME280;71485;51.638;-0.182;2023-07-13T20:14:27;100574.01;;;24.67;32.63
81990;BME280;71485;51.638;-0.182;2023-07-13T20:16:58;100573.30;;;24.54;32.77
81990;BME280;71485;51.638;-0.182;2023-07-13T20:19:18;100576.63;;;24.80;32.52
81990;BME280;71485;51.638;-0.182;2023-07-13T20:21:43;100575.11;;;24.87;32.74
81990;BME280;71485;51.638;-0.182;2023-07-13T20:24:13;100578.99;;;24.69;32.30
81990;BME280;71485;51.638;-0.182;2023-07-13T20:26:35;100581.18;;;24.45;33.18
81990;BME280;71485;51.638;-0.182;2023-07-13T20:29:00;100585.08;;;24.79;32.72
81990;BME280;71485;51.638;-0.182;2023-07-13T20:31:25;100590.10;;;25.27;32.09
81990;BME280;71485;51.638;-0.182;2023-07-13T20:33:51;100592.97;;;25.53;32.52
81990;BME280;71485;51.638;-0.182;2023-07-13T20:36:16;100597.85;;;25.23;32.15
81990;BME280;71485;51.638;-0.182;2023-07-13T20:38:43;100601.14;;;25.61;31.96
81990;BME280;71485;51.638;-0.182;2023-07-13T20:41:10;100604.34;;;24.88;32.23
81990;BME280;71485;51.638;-0.182;2023-07-13T20:43:33;100608.59;;;24.20;33.04
81990;BME280;71485;51.638;-0.182;2023-07-13T20:46:00;100609.16;;;24.51;32.55
81990;BME280;71485;51.638;-0.182;2023-07-13T20:48:29;100605.70;;;24.68;32.39
81990;BME280;71485;51.638;-0.182;2023-07-13T20:50:51;100604.02;;;25.04;31.92
81990;BME280;71485;51.638;-0.182;2023-07-13T20:53:15;100607.67;;;24.01;33.16
81990;BME280;71485;51.638;-0.182;2023-07-13T20:55:41;100607.22;;;24.37;32.39
81990;BME280;71485;51.638;-0.182;2023-07-13T20:58:07;100606.49;;;24.66;32.24
81990;BME280;71485;51.638;-0.182;2023-07-13T21:00:32;100606.32;;;24.71;32.20
81990;BME280;71485;51.638;-0.182;2023-07-13T21:03:00;100607.88;;;24.48;32.52
81990;BME280;71485;51.638;-0.182;2023-07-13T21:05:25;100610.17;;;24.46;32.40
81990;BME280;71485;51.638;-0.182;2023-07-13T21:07:50;100607.86;;;24.68;32.11
81990;BME280;71485;51.638;-0.182;2023-07-13T21:10:21;100606.92;;;24.77;32.04
81990;BME280;71485;51.638;-0.182;2023-07-13T21:12:40;100604.31;;;24.68;32.09
81990;BME280;71485;51.638;-0.182;2023-07-13T21:15:07;100610.41;;;25.05;32.27
81990;BME280;71485;51.638;-0.182;2023-07-13T21:17:33;100611.55;;;24.76;31.95
81990;BME280;71485;51.638;-0.182;2023-07-13T21:19:56;100613.77;;;25.17;32.08
81990;BME280;71485;51.638;-0.182;2023-07-13T21:22:22;100617.07;;;24.80;32.26
81990;BME280;71485;51.638;-0.182;2023-07-13T21:24:48;100613.50;;;24.96;31.82
81990;BME280;71485;51.638;-0.182;2023-07-13T21:27:14;100613.64;;;24.56;32.28
81990;BME280;71485;51.638;-0.182;2023-07-13T21:29:39;100606.60;;;25.29;31.95
81990;BME280;71485;51.638;-0.182;2023-07-13T21:32:08;100603.38;;;25.32;31.89
81990;BME280;71485;51.638;-0.182;2023-07-13T21:34:30;100606.37;;;25.22;31.68
81990;BME280;71485;51.638;-0.182;2023-07-13T21:36:57;100603.52;;;24.80;31.95
81990;BME280;71485;51.638;-0.182;2023-07-13T21:39:21;100602.91;;;25.27;31.93
81990;BME280;71485;51.638;-0.182;2023-07-13T21:41:48;100601.57;;;25.05;31.88
81990;BME280;71485;51.638;-0.182;2023-07-13T21:44:21;100598.56;;;25.40;31.78
81990;BME280;71485;51.638;-0.182;2023-07-13T21:46:38;100601.35;;;25.06;31.68
81990;BME280;71485;51.638;-0.182;2023-07-13T21:49:04;100601.32;;;25.46;31.78
81990;BME280;71485;51.638;-0.182;2023-07-13T21:51:29;100604.49;;;25.02;31.74
81990;BME280;71485;51.638;-0.182;2023-07-13T21:53:55;100604.44;;;25.29;31.97
81990;BME280;71485;51.638;-0.182;2023-07-13T21:56:21;100600.76;;;25.40;31.86
81990;BME280;71485;51.638;-0.182;2023-07-13T21:58:47;100601.87;;;24.95;32.08
81990;BME280;71485;51.638;-0.182;2023-07-13T22:01:15;100599.51;;;25.32;31.90
81990;BME280;71485;51.638;-0.182;2023-07-13T22:03:38;100600.40;;;25.14;32.13
81990;BME280;71485;51.638;-0.182;2023-07-13T22:06:04;100601.21;;;25.24;31.71
81990;BME280;71485;51.638;-0.182;2023-07-13T22:08:31;100603.18;;;25.30;31.92
81990;BME280;71485;51.638;-0.182;2023-07-13T22:10:53;100609.35;;;24.93;32.38
81990;BME280;71485;51.638;-0.182;2023-07-13T22:13:19;100605.15;;;25.01;32.26
81990;BME280;71485;51.638;-0.182;2023-07-13T22:15:45;100600.21;;;25.17;32.03
81990;BME280;71485;51.638;-0.182;2023-07-13T22:18:14;100602.77;;;24.79;32.52
81990;BME280;71485;51.638;-0.182;2023-07-13T22:20:36;100600.55;;;24.98;31.91
81990;BME280;71485;51.638;-0.182;2023-07-13T22:23:13;100602.94;;;25.15;32.01
81990;BME280;71485;51.638;-0.182;2023-07-13T22:25:27;100605.67;;;25.04;32.09
81990;BME280;71485;51.638;-0.182;2023-07-13T22:27:52;100608.97;;;24.83;32.30
81990;BME280;71485;51.638;-0.182;2023-07-13T22:30:18;100607.87;;;25.14;31.95
81990;BME280;71485;51.638;-0.182;2023-07-13T22:32:44;100610.47;;;25.10;31.95
81990;BME280;71485;51.638;-0.182;2023-07-13T22:35:11;100611.75;;;24.80;32.35
81990;BME280;71485;51.638;-0.182;2023-07-13T22:37:36;100609.56;;;24.93;32.16
81990;BME280;71485;51.638;-0.182;2023-07-13T22:40:01;100608.66;;;24.82;32.22
81990;BME280;71485;51.638;-0.182;2023-07-13T22:42:26;100607.52;;;25.00;31.98
81990;BME280;71485;51.638;-0.182;2023-07-13T22:44:51;100608.62;;;24.94;32.05
81990;BME280;71485;51.638;-0.182;2023-07-13T22:47:19;100608.23;;;24.71;32.30
81990;BME280;71485;51.638;-0.182;2023-07-13T22:49:48;100610.68;;;24.87;32.03
81990;BME280;71485;51.638;-0.182;2023-07-13T22:52:11;100605.48;;;24.82;32.05
81990;BME280;71485;51.638;-0.182;2023-07-13T22:54:34;100608.48;;;24.82;32.00
81990;BME280;71485;51.638;-0.182;2023-07-13T22:56:59;100603.55;;;25.05;31.68
81990;BME280;71485;51.638;-0.182;2023-07-13T22:59:25;100599.46;;;25.01;31.72
81990;BME280;71485;51.638;-0.182;2023-07-13T23:01:50;100603.28;;;24.42;32.12
81990;BME280;71485;51.638;-0.182;2023-07-13T23:04:22;100605.80;;;24.50;31.94
81990;BME280;71485;51.638;-0.182;2023-07-13T23:06:43;100602.44;;;24.81;31.52
81990;BME280;71485;51.638;-0.182;2023-07-13T23:09:09;100601.63;;;24.94;31.54
81990;BME280;71485;51.638;-0.182;2023-07-13T23:11:33;100598.08;;;25.03;31.45
81990;BME280;71485;51.638;-0.182;2023-07-13T23:13:58;100597.21;;;24.76;31.39
81990;BME280;71485;51.638;-0.182;2023-07-13T23:16:27;100597.46;;;24.92;31.44
81990;BME280;71485;51.638;-0.182;2023-07-13T23:18:51;100595.14;;;24.93;31.35
81990;BME280;71485;51.638;-0.182;2023-07-13T23:21:17;100599.21;;;24.67;31.33
81990;BME280;71485;51.638;-0.182;2023-07-13T23:23:41;100596.36;;;24.81;31.43
81990;BME280;71485;51.638;-0.182;2023-07-13T23:26:10;100591.33;;;24.79;31.39
81990;BME280;71485;51.638;-0.182;2023-07-13T23:28:32;100590.30;;;24.80;31.36
81990;BME280;71485;51.638;-0.182;2023-07-13T23:30:57;100589.60;;;24.66;31.57
81990;BME280;71485;51.638;-0.182;2023-07-13T23:33:25;100588.42;;;24.67;31.53
81990;BME280;71485;51.638;-0.182;2023-07-13T23:35:49;100585.40;;;24.82;31.26
81990;BME280;71485;51.638;-0.182;2023-07-13T23:38:14;100584.41;;;24.71;31.44
81990;BME280;71485;51.638;-0.182;2023-07-13T23:40:40;100581.38;;;24.85;31.30
81990;BME280;71485;51.638;-0.182;2023-07-13T23:43:05;100579.48;;;24.81;31.38
81990;BME280;71485;51.638;-0.182;2023-07-13T23:45:31;100582.27;;;24.90;31.33
81990;BME280;71485;51.638;-0.182;2023-07-13T23:47:58;100583.96;;;24.62;31.67
81990;BME280;71485;51.638;-0.182;2023-07-13T23:50:24;100585.86;;;24.72;31.42
81990;BME280;71485;51.638;-0.182;2023-07-13T23:52:48;100582.76;;;25.09;31.49
81990;BME280;71485;51.638;-0.182;2023-07-13T23:55:16;100578.38;;;24.92;31.39
81990;BME280;71485;51.638;-0.182;2023-07-13T23:57:40;100576.77;;;24.64;31.50
